Kap Morris Jesup

KL  EN  DA
ASIAQ
Weather Now GREENLAND SURVEY
Updated [WGT/WGST] Temperature [°C] Wind [m/s] Air pressure [hPa] Relative humidity [%] Precipitation [mm]
Present Wind chill Speed Max
21.01 20:00-34,00,0n/an/a99570n/a
21.01 19:00-34,50,0n/an/a99570n/a
21.01 18:00-34,90,0n/an/a99469n/a
21.01 17:00-34,90,0n/an/a99469n/a
21.01 16:00-35,5-49,45,1 ⇒8,899469n/a
21.01 15:00-35,9-53,18,2 ⇒10,899369n/a
21.01 14:00-35,8-50,55,7 ⇒9,899369n/a
21.01 13:00-35,4-47,94,1 ⇒7,299269n/a
21.01 12:00-36,20,00,5 ⇑1,099269n/a
21.01 11:00-36,1-42,91,5 ⇒2,199269n/a
21.01 10:00-35,9-45,82,6 ⇒3,199269n/a
21.01 09:00-35,7-42,51,5 ⇗1,599369n/a
21.01 08:00-36,6-48,63,6 ⇒5,199369n/a
21.01 07:00-36,1-46,02,6 ⇒6,299369n/a
21.01 06:00-35,2-41,91,5 ⇐3,199369n/a
21.01 05:00-34,4-41,01,5 ⇒2,699470n/a
21.01 04:00-35,20,00,5 ⇗1,099469n/a
21.01 03:00-34,7-41,31,5 ⇘2,199570n/a
21.01 02:00-34,3-43,92,6 ⇒3,699570n/a
21.01 01:00-33,9-42,22,1 ⇗2,699670n/a
21.01 00:00-33,0-39,41,5 ⇗2,199671n/a
20.01 23:00-33,8-42,12,1 ⇒2,699771n/a
20.01 22:00-34,8-43,32,1 ⇒2,699770n/a
20.01 21:00-35,40,00,5 ⇐1,599870n/a
20.01 20:00-34,10,01,0 ⇘1,599870n/a
Position: (83.6561111111,-33.3738888888)

[Back]